Time;durP1;ratioP1;P1;durP2;ratioP2;P2;SDS_P1;SDS_P2;PMS_P1;PMS_P2;Temp;Humidity;BMP_temperature;BMP_pressure;BME280_temperature;BME280_humidity;BME280_pressure;Samples;Min_cycle;Max_cycle;Signal;HPM_P1;HPM_P2
2021/07/11 00:02:13;;;;;;;99.97;50.78;;;;;;;14.44;100.00;101447.13;5063251;28;20021;-67
2021/07/11 00:04:38;;;;;;;100.03;52.88;;;;;;;14.53;100.00;101450.66;5061692;28;20047;-70
2021/07/11 00:07:03;;;;;;;101.20;52.70;;;;;;;14.58;100.00;101456.88;5063478;28;20032;-70
2021/07/11 00:09:29;;;;;;;98.65;52.03;;;;;;;14.63;100.00;101457.78;5060909;28;20033;-67
2021/07/11 00:11:54;;;;;;;96.50;51.42;;;;;;;14.67;100.00;101456.00;5063756;28;20075;-69
2021/07/11 00:14:20;;;;;;;91.30;48.38;;;;;;;14.60;100.00;101452.44;5062419;28;20025;-69
2021/07/11 00:16:45;;;;;;;91.63;50.97;;;;;;;14.67;100.00;101453.34;5062407;28;20075;-64
2021/07/11 00:19:11;;;;;;;83.82;48.78;;;;;;;14.62;100.00;101451.56;5063619;28;20020;-68
2021/07/11 00:21:36;;;;;;;88.90;49.38;;;;;;;14.48;100.00;101448.03;5061079;28;20329;-70
2021/07/11 00:24:02;;;;;;;87.50;48.47;;;;;;;14.41;100.00;101440.94;5046365;28;20369;-70
2021/07/11 00:26:27;;;;;;;97.82;51.95;;;;;;;14.41;100.00;101449.81;5061113;28;20029;-66
2021/07/11 00:28:52;;;;;;;105.35;53.67;;;;;;;14.34;100.00;101450.69;5062924;28;20472;-63
2021/07/11 00:31:18;;;;;;;104.22;54.70;;;;;;;14.33;100.00;101440.06;5062404;28;20028;-67
2021/07/11 00:33:43;;;;;;;112.90;55.78;;;;;;;14.31;100.00;101440.06;5061807;28;20029;-69
2021/07/11 00:36:08;;;;;;;109.72;56.72;;;;;;;14.34;100.00;101445.38;5063452;28;20077;-63
2021/07/11 00:38:34;;;;;;;115.18;57.38;;;;;;;14.32;100.00;101441.84;5060861;28;20028;-64
2021/07/11 00:41:00;;;;;;;117.88;58.22;;;;;;;14.28;100.00;101440.09;5064503;28;20112;-63
2021/07/11 00:43:25;;;;;;;124.40;58.45;;;;;;;14.31;100.00;101437.41;5061010;28;20067;-66
2021/07/11 00:45:51;;;;;;;125.70;61.45;;;;;;;14.30;100.00;101444.53;5063113;28;20045;-62
2021/07/11 00:48:20;;;;;;;117.28;58.35;;;;;;;14.30;100.00;101447.19;5062093;28;20025;-66
2021/07/11 00:50:46;;;;;;;117.75;56.75;;;;;;;14.34;100.00;101439.19;5061756;28;20049;-65
2021/07/11 00:53:12;;;;;;;120.25;58.28;;;;;;;14.43;100.00;101437.41;5063093;28;20025;-63
2021/07/11 00:55:38;;;;;;;117.15;56.50;;;;;;;14.54;100.00;101436.50;5060735;28;20036;-62
2021/07/11 00:58:04;;;;;;;114.40;55.58;;;;;;;14.54;100.00;101444.47;5063604;28;20027;-65
2021/07/11 01:00:31;;;;;;;119.07;56.85;;;;;;;14.50;100.00;101448.03;5060797;28;20025;-62
2021/07/11 01:03:01;;;;;;;110.32;57.00;;;;;;;14.46;100.00;101444.50;5063523;28;20074;-62
2021/07/11 01:05:28;;;;;;;120.10;58.92;;;;;;;14.52;100.00;101440.91;5061010;28;20025;-63
2021/07/11 01:07:56;;;;;;;116.97;57.13;;;;;;;14.47;100.00;101443.59;5063266;28;20049;-62
2021/07/11 01:10:37;;;;;;;111.53;57.92;;;;;;;14.50;100.00;101440.91;5061352;28;20091;-62
2021/07/11 01:13:04;;;;;;;118.10;60.05;;;;;;;14.43;100.00;101450.72;5060212;28;20483;-62
2021/07/11 01:15:31;;;;;;;126.45;60.97;;;;;;;14.41;100.00;101446.28;5063579;28;20020;-63
2021/07/11 01:18:02;;;;;;;128.55;61.53;;;;;;;14.42;100.00;101445.38;5061179;28;20037;-62
2021/07/11 01:20:45;;;;;;;128.02;62.90;;;;;;;14.43;100.00;101444.47;5067215;28;20020;-62
2021/07/11 01:23:21;;;;;;;132.43;63.60;;;;;;;14.46;100.00;101444.50;5064771;28;20036;-63
2021/07/11 01:25:49;;;;;;;131.00;63.83;;;;;;;14.46;100.00;101439.19;5065940;28;20097;-62
2021/07/11 01:28:22;;;;;;;146.52;67.30;;;;;;;14.43;100.00;101442.72;5065561;28;20041;-63
2021/07/11 01:30:50;;;;;;;144.48;69.90;;;;;;;14.47;100.00;101446.25;5065889;28;20082;-62
2021/07/11 01:33:18;;;;;;;146.73;69.47;;;;;;;14.45;100.00;101445.38;5065300;28;20052;-63
2021/07/11 01:35:45;;;;;;;149.05;69.93;;;;;;;14.52;100.00;101446.22;5065910;28;20031;-63
2021/07/11 01:38:11;;;;;;;159.60;73.05;;;;;;;14.52;100.00;101457.78;5064646;28;20539;-62
2021/07/11 01:40:37;;;;;;;162.43;75.13;;;;;;;14.54;100.00;101463.97;5067056;28;20075;-62
2021/07/11 01:43:04;;;;;;;164.80;75.25;;;;;;;14.53;100.00;101461.31;5045764;28;20021;-62
2021/07/11 01:45:29;;;;;;;155.27;73.88;;;;;;;14.60;100.00;101460.41;5067126;28;20249;-62
2021/07/11 01:47:55;;;;;;;167.07;75.82;;;;;;;14.57;100.00;101452.44;5064297;28;20697;-63
2021/07/11 01:50:22;;;;;;;167.90;76.03;;;;;;;14.56;100.00;101462.22;5065543;28;20124;-65
2021/07/11 01:52:49;;;;;;;168.10;77.32;;;;;;;14.56;100.00;101456.88;5065405;28;20024;-63
2021/07/11 01:55:16;;;;;;;169.20;73.95;;;;;;;14.57;100.00;101448.00;5064749;28;20025;-63
2021/07/11 01:57:42;;;;;;;176.25;77.75;;;;;;;14.55;100.00;101448.91;5047932;28;20391;-64
2021/07/11 02:00:13;;;;;;;170.50;76.75;;;;;;;14.56;100.00;101446.25;5064107;28;20083;-65
2021/07/11 02:02:40;;;;;;;179.57;78.35;;;;;;;14.57;100.00;101455.97;5066423;28;20039;-62
2021/07/11 02:05:08;;;;;;;177.35;79.45;;;;;;;14.57;100.00;101452.44;5063461;28;20076;-68
2021/07/11 02:07:34;;;;;;;182.73;77.43;;;;;;;14.57;100.00;101448.00;5067100;28;20486;-64
2021/07/11 02:10:00;;;;;;;187.25;79.57;;;;;;;14.58;100.00;101448.91;5063430;28;20061;-63
2021/07/11 02:12:29;;;;;;;181.95;81.38;;;;;;;14.57;100.00;101449.78;5066009;28;20037;-65
2021/07/11 02:14:56;;;;;;;183.65;81.10;;;;;;;14.55;100.00;101446.25;5064420;28;20021;-65
2021/07/11 02:17:26;;;;;;;191.68;80.65;;;;;;;14.55;100.00;101444.47;5065292;28;20033;-66
2021/07/11 02:19:52;;;;;;;188.90;82.22;;;;;;;14.52;100.00;101444.47;5064342;28;20032;-62
2021/07/11 02:22:18;;;;;;;186.73;79.55;;;;;;;14.51;100.00;101448.03;5064782;28;20067;-62
2021/07/11 02:24:45;;;;;;;197.02;82.75;;;;;;;14.51;100.00;101447.16;5065449;28;20029;-62
2021/07/11 02:27:11;;;;;;;199.02;82.20;;;;;;;14.49;100.00;101441.84;5063485;28;20044;-62
2021/07/11 02:29:40;;;;;;;210.43;85.47;;;;;;;14.50;100.00;101448.03;5066021;28;20396;-62
2021/07/11 02:32:08;;;;;;;210.32;86.15;;;;;;;14.52;100.00;101448.91;5062727;28;20055;-62
2021/07/11 02:34:35;;;;;;;214.80;87.13;;;;;;;14.52;100.00;101451.56;5066134;28;20025;-62
2021/07/11 02:37:02;;;;;;;199.75;84.60;;;;;;;14.55;100.00;101454.25;5062891;28;20037;-62
2021/07/11 02:39:28;;;;;;;214.20;89.18;;;;;;;14.54;100.00;101458.66;5066087;28;20029;-63
2021/07/11 02:42:07;;;;;;;206.30;87.68;;;;;;;14.53;100.00;101464.84;5063588;28;20035;-63
2021/07/11 02:44:33;;;;;;;212.60;86.45;;;;;;;14.54;100.00;101460.44;5062551;28;20074;-63
2021/07/11 02:47:11;;;;;;;194.82;83.63;;;;;;;14.52;100.00;101463.09;5065768;28;20024;-65
2021/07/11 02:49:41;;;;;;;205.18;85.90;;;;;;;14.51;100.00;101458.66;5062648;28;20049;-63
2021/07/11 02:52:07;;;;;;;216.75;88.07;;;;;;;14.52;100.00;101460.44;5066114;28;20116;-63
2021/07/11 02:54:38;;;;;;;209.45;86.88;;;;;;;14.50;100.00;101456.88;5062450;28;20091;-63
2021/07/11 02:57:05;;;;;;;207.80;86.78;;;;;;;14.48;100.00;101466.66;5062518;28;20515;-63
2021/07/11 02:59:35;;;;;;;217.93;91.63;;;;;;;14.48;100.00;101458.66;5065606;28;20468;-62
2021/07/11 03:02:06;;;;;;;214.68;89.35;;;;;;;14.46;100.00;101465.78;5062127;28;20036;-63
2021/07/11 03:04:36;;;;;;;235.75;89.03;;;;;;;14.46;100.00;101465.78;5062192;28;20078;-63
2021/07/11 03:07:02;;;;;;;224.77;90.30;;;;;;;14.45;100.00;101470.19;5062316;28;20162;-63
2021/07/11 03:09:28;;;;;;;213.50;88.68;;;;;;;14.45;100.00;101479.97;5065288;28;20056;-62
2021/07/11 03:11:55;;;;;;;218.80;89.28;;;;;;;14.46;100.00;101471.97;5063182;28;20024;-63
2021/07/11 03:14:22;;;;;;;202.07;88.63;;;;;;;14.43;100.00;101471.06;5064308;28;20025;-63
2021/07/11 03:16:51;;;;;;;213.88;88.22;;;;;;;14.40;100.00;101471.09;5063877;28;20025;-63
2021/07/11 03:19:18;;;;;;;207.50;87.10;;;;;;;14.45;100.00;101470.19;5063150;28;20031;-63
2021/07/11 03:21:45;;;;;;;207.65;88.45;;;;;;;14.42;100.00;101477.31;5064512;28;20502;-65
2021/07/11 03:24:11;;;;;;;215.95;89.78;;;;;;;14.39;100.00;101474.66;5062479;28;20025;-63
2021/07/11 03:26:39;;;;;;;215.07;89.95;;;;;;;14.38;100.00;101467.56;5065142;28;20024;-64
2021/07/11 03:29:10;;;;;;;210.02;89.18;;;;;;;14.39;100.00;101475.53;5061853;28;20033;-63
2021/07/11 03:31:35;;;;;;;207.43;88.38;;;;;;;14.40;100.00;101460.44;5061899;28;20117;-62
2021/07/11 03:34:03;;;;;;;206.85;86.63;;;;;;;14.40;100.00;101466.69;5065049;28;20051;-62
2021/07/11 03:36:30;;;;;;;219.20;88.93;;;;;;;14.42;100.00;101464.00;5062525;28;20414;-62
2021/07/11 03:39:02;;;;;;;206.32;85.68;;;;;;;14.43;100.00;101473.75;5064142;28;20531;-63
2021/07/11 03:41:32;;;;;;;218.25;90.20;;;;;;;14.44;100.00;101483.50;5062402;28;20112;-64
2021/07/11 03:44:00;;;;;;;231.02;90.20;;;;;;;14.44;100.00;101479.06;5064202;28;20059;-63
2021/07/11 03:46:29;;;;;;;228.65;93.28;;;;;;;14.46;100.00;101474.63;5062646;28;20032;-63
2021/07/11 03:49:01;;;;;;;229.25;93.70;;;;;;;14.50;100.00;101478.16;5063547;28;20510;-63
2021/07/11 03:51:32;;;;;;;227.88;94.03;;;;;;;14.53;100.00;101472.84;5062010;28;20029;-63
2021/07/11 03:53:59;;;;;;;233.77;93.32;;;;;;;14.55;100.00;101476.41;5064096;28;20114;-65
2021/07/11 03:56:27;;;;;;;237.80;94.88;;;;;;;14.52;100.00;101476.41;5062307;28;20036;-64
2021/07/11 03:58:56;;;;;;;242.73;93.78;;;;;;;14.53;100.00;101479.94;5063490;28;20112;-65
2021/07/11 04:01:24;;;;;;;241.60;93.22;;;;;;;14.52;100.00;101475.50;5062551;28;20054;-64
2021/07/11 04:03:53;;;;;;;243.32;94.32;;;;;;;14.58;100.00;101476.38;5062947;28;20052;-63
2021/07/11 04:06:20;;;;;;;241.57;95.40;;;;;;;14.64;100.00;101465.75;5063083;28;20413;-62
2021/07/11 04:08:48;;;;;;;234.98;93.47;;;;;;;14.67;100.00;101459.53;5062004;28;20395;-63
2021/07/11 04:11:13;;;;;;;252.05;98.07;;;;;;;14.68;100.00;101465.75;5063788;28;20056;-63
2021/07/11 04:13:39;;;;;;;238.07;91.03;;;;;;;14.70;100.00;101462.19;5061260;28;20056;-64
2021/07/11 04:16:07;;;;;;;243.35;92.43;;;;;;;14.74;100.00;101471.06;5046711;28;20029;-63
2021/07/11 04:18:43;;;;;;;251.18;94.65;;;;;;;14.77;100.00;101465.72;5061162;28;20029;-63
2021/07/11 04:21:10;;;;;;;246.18;94.07;;;;;;;14.79;100.00;101471.91;5061166;28;20052;-63
2021/07/11 04:23:36;;;;;;;247.65;95.70;;;;;;;14.81;100.00;101470.16;5064176;28;20176;-63
2021/07/11 04:26:03;;;;;;;259.67;95.22;;;;;;;14.90;100.00;101471.91;5061038;28;20349;-62
2021/07/11 04:28:30;;;;;;;252.00;95.40;;;;;;;14.94;100.00;101476.28;5063626;28;20116;-63
2021/07/11 04:30:59;;;;;;;260.00;99.18;;;;;;;14.93;100.00;101478.09;5061466;28;20472;-63
2021/07/11 04:33:24;;;;;;;249.50;96.78;;;;;;;14.93;100.00;101478.09;5063153;28;20108;-63
2021/07/11 04:35:50;;;;;;;255.98;98.40;;;;;;;14.95;100.00;101476.28;5062454;28;20091;-65
2021/07/11 04:38:15;;;;;;;249.68;96.10;;;;;;;15.05;100.00;101470.94;5061667;28;20041;-65
2021/07/11 04:40:41;;;;;;;244.70;96.57;;;;;;;15.07;100.00;101477.13;5063718;28;20025;-63
2021/07/11 04:43:06;;;;;;;242.73;95.80;;;;;;;15.12;100.00;101475.34;5060697;28;20029;-63
2021/07/11 04:45:31;;;;;;;254.02;96.18;;;;;;;15.07;100.00;101472.72;5064011;28;20023;-63
2021/07/11 04:47:57;;;;;;;233.05;92.90;;;;;;;15.14;100.00;101468.22;5061277;28;20062;-63
2021/07/11 04:50:22;;;;;;;241.77;95.90;;;;;;;15.15;100.00;101465.56;5062320;28;20041;-65
2021/07/11 04:52:47;;;;;;;251.60;96.68;;;;;;;15.16;100.00;101466.47;5063289;28;20052;-65
2021/07/11 04:55:15;;;;;;;239.02;92.78;;;;;;;15.20;100.00;101464.66;5067904;28;20040;-70
2021/07/11 04:57:41;;;;;;;246.68;92.93;;;;;;;15.21;100.00;101469.97;5070001;28;20093;-69
2021/07/11 05:00:09;;;;;;;236.02;92.25;;;;;;;15.22;100.00;101479.75;5066993;28;20444;-70
2021/07/11 05:02:35;;;;;;;236.02;94.70;;;;;;;15.28;100.00;101479.72;5070068;28;20032;-64
2021/07/11 05:15:14;;;;;;;222.60;91.88;;;;;;;15.40;100.00;101477.88;5068594;28;20039;-64
2021/07/11 05:17:39;;;;;;;215.98;91.65;;;;;;;15.42;100.00;101482.31;5073117;28;20024;-63
2021/07/11 05:20:06;;;;;;;221.90;91.80;;;;;;;15.48;100.00;101486.72;5073579;28;20036;-64
2021/07/11 05:22:32;;;;;;;223.52;92.93;;;;;;;15.57;100.00;101476.00;5068612;28;20036;-66
2021/07/11 05:24:57;;;;;;;210.55;87.88;;;;;;;15.67;100.00;101471.50;5070824;28;20025;-65
2021/07/11 05:27:23;;;;;;;199.23;87.05;;;;;;;15.71;100.00;101461.69;5071532;28;20070;-66
2021/07/11 05:29:49;;;;;;;186.45;83.70;;;;;;;15.66;100.00;101469.72;5071147;28;20021;-65
2021/07/11 05:32:14;;;;;;;173.75;80.30;;;;;;;15.62;100.00;101462.63;5069159;28;20021;-63
2021/07/11 05:34:39;;;;;;;192.60;81.00;;;;;;;15.62;100.00;101474.16;5068921;28;20443;-66
2021/07/11 05:37:05;;;;;;;183.60;82.88;;;;;;;15.60;100.00;101494.63;5073713;28;22312;-65
2021/07/11 05:39:30;;;;;;;192.35;86.25;;;;;;;15.54;100.00;101497.34;5074198;28;20053;-64
2021/07/11 05:41:55;;;;;;;182.88;78.43;;;;;;;15.53;100.00;101503.56;5069636;28;20395;-64
2021/07/11 05:44:21;;;;;;;184.00;78.40;;;;;;;15.54;100.00;101512.41;5069306;28;20028;-64
2021/07/11 05:46:47;;;;;;;188.48;79.15;;;;;;;15.58;100.00;101504.44;5068527;28;20037;-66
2021/07/11 05:49:13;;;;;;;176.90;79.78;;;;;;;15.62;100.00;101495.50;5073670;28;20036;-67
2021/07/11 05:51:38;;;;;;;163.02;76.97;;;;;;;15.71;100.00;101494.53;5073773;28;20029;-65
2021/07/11 05:54:03;;;;;;;153.15;72.20;;;;;;;15.84;100.00;101496.28;5071342;28;20028;-65
2021/07/11 05:56:29;;;;;;;157.55;74.88;;;;;;;15.92;100.00;101501.56;5069767;28;20020;-66
2021/07/11 05:58:54;;;;;;;149.80;73.35;;;;;;;15.92;100.00;101509.56;5070738;28;20036;-65
2021/07/11 06:01:19;;;;;;;155.60;76.53;;;;;;;15.87;100.00;101511.34;5073893;28;20055;-66
2021/07/11 06:03:45;;;;;;;157.18;74.20;;;;;;;15.84;100.00;101517.63;5073288;28;20028;-65
2021/07/11 06:06:10;;;;;;;175.45;78.82;;;;;;;15.81;100.00;101511.41;5067354;28;20043;-65
2021/07/11 06:08:35;;;;;;;174.95;75.65;;;;;;;15.80;100.00;101517.63;5071287;28;20032;-64
2021/07/11 06:11:01;;;;;;;177.85;80.07;;;;;;;15.83;100.00;101512.28;5066358;28;20374;-63
2021/07/11 06:13:27;;;;;;;187.38;82.63;;;;;;;15.86;100.00;101521.16;5066804;28;20114;-63
2021/07/11 06:15:53;;;;;;;187.93;83.60;;;;;;;15.94;100.00;101513.09;5070967;28;20463;-63
2021/07/11 06:18:18;;;;;;;177.77;79.65;;;;;;;15.99;100.00;101511.28;5067956;28;20028;-65
2021/07/11 06:20:44;;;;;;;179.68;81.75;;;;;;;15.98;100.00;101520.16;5066161;28;20025;-63
2021/07/11 06:23:09;;;;;;;181.43;81.07;;;;;;;16.00;100.00;101523.72;5069693;28;20092;-65
2021/07/11 06:25:36;;;;;;;177.13;76.68;;;;;;;16.02;100.00;101526.38;5064536;28;20024;-66
2021/07/11 06:28:02;;;;;;;172.25;77.10;;;;;;;16.02;100.00;101527.25;5069142;28;20024;-67
2021/07/11 06:30:27;;;;;;;156.52;70.88;;;;;;;15.98;100.00;101530.84;5068083;28;20028;-66
2021/07/11 06:32:52;;;;;;;157.65;68.07;;;;;;;15.88;100.00;101529.13;5065134;28;20486;-66
2021/07/11 06:35:22;;;;;;;153.63;70.55;;;;;;;15.84;100.00;101536.28;5067703;28;20060;-63
2021/07/11 06:37:49;;;;;;;150.15;65.95;;;;;;;15.83;100.00;101536.28;5067973;28;20025;-65
2021/07/11 06:40:16;;;;;;;161.20;71.78;;;;;;;15.80;100.00;101538.94;5065639;28;20025;-65
2021/07/11 06:42:42;;;;;;;171.05;74.20;;;;;;;15.76;100.00;101539.84;5070413;28;20116;-65
2021/07/11 06:45:10;;;;;;;157.35;68.32;;;;;;;15.72;100.00;101540.75;5070682;28;20500;-64
2021/07/11 06:47:36;;;;;;;159.27;67.95;;;;;;;15.68;100.00;101545.22;5064600;28;20021;-66
2021/07/11 06:50:04;;;;;;;150.50;65.00;;;;;;;15.62;100.00;101545.25;5070600;28;20045;-66
2021/07/11 06:52:29;;;;;;;149.48;66.38;;;;;;;15.60;100.00;101550.59;5067888;28;20033;-65
2021/07/11 06:54:55;;;;;;;148.65;62.38;;;;;;;15.64;100.00;101544.34;5071213;28;20340;-66
2021/07/11 06:57:20;;;;;;;149.50;64.60;;;;;;;15.65;100.00;101547.91;5063513;28;20028;-67
2021/07/11 06:59:46;;;;;;;140.93;64.63;;;;;;;15.67;100.00;101557.66;5066613;28;20021;-65
2021/07/11 07:02:11;;;;;;;134.35;60.83;;;;;;;15.65;100.00;101558.56;5063196;28;20016;-65
2021/07/11 07:04:36;;;;;;;128.90;58.55;;;;;;;15.67;100.00;101567.44;5070811;28;20024;-66
2021/07/11 07:07:02;;;;;;;126.63;61.70;;;;;;;15.71;100.00;101562.97;5069364;28;20415;-66
2021/07/11 07:09:28;;;;;;;106.93;53.67;;;;;;;15.80;100.00;101571.84;5069845;28;20069;-66
2021/07/11 07:11:53;;;;;;;105.47;52.78;;;;;;;15.97;100.00;101574.38;5063434;28;20083;-66
2021/07/11 07:14:18;;;;;;;88.10;49.53;;;;;;;16.10;100.00;101584.97;5068018;28;20024;-65
2021/07/11 07:16:44;;;;;;;88.22;48.63;;;;;;;16.28;100.00;101575.94;5064121;28;20060;-66
2021/07/11 07:19:09;;;;;;;61.30;41.42;;;;;;;16.33;100.00;101574.16;5066951;28;20073;-66
2021/07/11 07:21:34;;;;;;;55.55;37.92;;;;;;;16.37;100.00;101578.56;5064231;28;20025;-65
2021/07/11 07:24:00;;;;;;;58.60;38.42;;;;;;;16.47;100.00;101595.34;5068941;28;20044;-65
2021/07/11 07:26:25;;;;;;;49.83;33.45;;;;;;;16.42;100.00;101590.06;5068832;28;20482;-65
2021/07/11 07:28:50;;;;;;;46.97;32.08;;;;;;;16.41;100.00;101584.75;5067938;28;20120;-66
2021/07/11 07:31:16;;;;;;;49.75;33.13;;;;;;;16.37;100.00;101581.22;5063616;28;20451;-66
2021/07/11 07:33:41;;;;;;;53.15;34.65;;;;;;;16.50;100.00;101576.69;5061889;28;20067;-65
2021/07/11 07:36:06;;;;;;;43.10;29.88;;;;;;;16.49;100.00;101572.22;5066438;28;20020;-66
2021/07/11 07:38:32;;;;;;;45.10;31.02;;;;;;;16.41;100.00;101568.72;5062496;28;20380;-65
2021/07/11 07:40:57;;;;;;;43.50;30.15;;;;;;;16.47;100.00;101566.91;5062602;28;20119;-66
2021/07/11 07:43:22;;;;;;;42.03;28.73;;;;;;;16.56;100.00;101569.50;5065824;28;20032;-64
2021/07/11 07:45:48;;;;;;;42.95;30.05;;;;;;;16.56;100.00;101563.28;5067236;28;20025;-65
2021/07/11 07:48:13;;;;;;;39.42;28.30;;;;;;;16.56;100.00;101566.81;5068719;28;20035;-66
2021/07/11 07:50:40;;;;;;;41.72;28.50;;;;;;;16.73;100.00;101564.00;5064645;28;20070;-66
2021/07/11 07:53:06;;;;;;;41.30;28.73;;;;;;;16.97;100.00;101571.81;5068588;28;20492;-65
2021/07/11 07:55:32;;;;;;;37.75;23.55;;;;;;;16.98;94.48;101579.81;5068162;28;20043;-66
2021/07/11 07:58:01;;;;;;;37.08;22.80;;;;;;;17.02;95.68;101576.22;5045890;28;20071;-66
2021/07/11 08:00:27;;;;;;;36.45;23.42;;;;;;;17.07;93.62;101568.13;5067081;28;20481;-65
2021/07/11 08:02:53;;;;;;;33.78;20.83;;;;;;;17.17;88.52;101568.91;5064924;28;20025;-66
2021/07/11 08:05:18;;;;;;;38.20;24.10;;;;;;;17.24;94.80;101578.59;5065086;28;20025;-66
2021/07/11 08:07:45;;;;;;;36.45;23.20;;;;;;;17.42;97.90;101582.88;5068485;28;20032;-65
2021/07/11 08:10:12;;;;;;;34.40;21.98;;;;;;;17.48;90.82;101579.22;5067551;28;20032;-67
2021/07/11 08:12:38;;;;;;;36.25;23.08;;;;;;;17.54;89.22;101571.13;5065033;28;20025;-65
2021/07/11 08:15:05;;;;;;;33.90;20.55;;;;;;;17.57;84.38;101566.59;5026904;28;20581;-66
2021/07/11 08:17:32;;;;;;;31.75;18.48;;;;;;;17.58;85.72;101565.72;5064690;28;20039;-65
2021/07/11 08:19:58;;;;;;;31.88;19.20;;;;;;;17.68;83.95;101566.47;5066593;28;20024;-64
2021/07/11 08:22:23;;;;;;;30.10;18.15;;;;;;;17.74;83.58;101563.72;5066361;28;20021;-67
2021/07/11 08:24:49;;;;;;;32.20;19.48;;;;;;;17.80;83.46;101559.19;5064875;28;20382;-66
2021/07/11 08:27:14;;;;;;;33.55;20.92;;;;;;;17.86;83.61;101557.31;5046326;28;20079;-66
2021/07/11 08:29:40;;;;;;;30.30;18.33;;;;;;;17.95;83.12;101561.66;5064925;28;20467;-66
2021/07/11 08:32:05;;;;;;;30.95;19.15;;;;;;;18.12;85.51;101561.41;5065481;28;20025;-66
2021/07/11 08:34:31;;;;;;;31.00;18.38;;;;;;;18.34;85.03;101561.94;5066045;28;20038;-66
2021/07/11 08:36:59;;;;;;;31.38;17.42;;;;;;;18.49;79.39;101568.81;5064774;28;20025;-65
2021/07/11 08:39:26;;;;;;;30.05;16.65;;;;;;;18.55;78.82;101565.16;5066143;28;20495;-66
2021/07/11 08:41:51;;;;;;;27.83;16.20;;;;;;;18.63;78.14;101556.09;5065699;28;20024;-67
2021/07/11 08:44:16;;;;;;;27.80;15.93;;;;;;;18.77;79.92;101568.34;5062433;28;20029;-65
2021/07/11 08:46:43;;;;;;;28.23;15.35;;;;;;;18.77;76.52;101555.84;5064271;28;20491;-64
2021/07/11 08:49:08;;;;;;;24.33;11.93;;;;;;;18.95;76.89;101561.81;5065121;28;20052;-65
2021/07/11 08:51:34;;;;;;;20.80;7.82;;;;;;;18.95;69.03;101564.47;5064771;28;20085;-65
2021/07/11 08:54:01;;;;;;;22.13;9.45;;;;;;;19.09;70.50;101561.50;5064169;28;20066;-65
2021/07/11 08:56:27;;;;;;;20.85;9.15;;;;;;;19.09;67.76;101566.88;5064412;28;20406;-65
2021/07/11 08:58:55;;;;;;;21.95;9.57;;;;;;;19.09;67.40;101572.22;5064340;28;20035;-65
2021/07/11 09:01:23;;;;;;;21.23;8.75;;;;;;;19.11;66.10;101576.66;5063447;28;20336;-65
2021/07/11 09:04:18;;;;;;;21.70;9.45;;;;;;;19.27;68.46;101569.19;5070301;28;20020;-64
2021/07/11 09:06:49;;;;;;;22.48;10.30;;;;;;;19.41;66.77;101582.31;5025595;28;20114;-64
2021/07/11 09:09:37;;;;;;;22.23;10.07;;;;;;;19.50;70.58;101589.28;5022499;28;20041;-63
2021/07/11 09:12:08;;;;;;;23.40;11.40;;;;;;;19.70;68.73;101575.44;5015662;28;20045;-64
2021/07/11 09:14:37;;;;;;;24.00;11.73;;;;;;;19.80;66.25;101587.75;5020895;28;20075;-64
2021/07/11 09:17:04;;;;;;;23.23;11.25;;;;;;;19.97;65.30;101583.81;5018209;28;20049;-65
2021/07/11 09:19:31;;;;;;;24.33;12.25;;;;;;;20.04;64.31;101572.03;5021273;28;20084;-64
2021/07/11 09:22:04;;;;;;;23.65;11.68;;;;;;;20.19;68.03;101576.13;5018181;28;20117;-64
2021/07/11 09:24:33;;;;;;;24.40;11.60;;;;;;;20.41;67.41;101579.16;5018098;28;20528;-65
2021/07/11 09:27:10;;;;;;;24.13;11.68;;;;;;;20.36;65.59;101571.22;5021389;28;20026;-65
2021/07/11 09:29:36;;;;;;;24.17;11.15;;;;;;;20.60;66.34;101567.97;5018801;28;20041;-65
2021/07/11 09:32:02;;;;;;;22.83;10.32;;;;;;;20.77;63.77;101581.88;5022474;28;20041;-65
2021/07/11 09:34:30;;;;;;;23.88;11.20;;;;;;;20.79;63.20;101569.25;5023529;28;20411;-65
2021/07/11 09:37:08;;;;;;;24.30;11.73;;;;;;;20.82;62.08;101568.31;5023721;28;20133;-65
2021/07/11 09:39:35;;;;;;;23.30;10.70;;;;;;;21.05;62.75;101567.66;5022886;28;20116;-65
2021/07/11 09:42:04;;;;;;;22.42;10.02;;;;;;;21.19;62.62;101578.03;5029762;28;20033;-65
2021/07/11 09:44:40;;;;;;;22.27;9.40;;;;;;;21.31;63.41;101582.19;5069242;28;20102;-65
2021/07/11 09:47:20;;;;;;;23.92;11.18;;;;;;;21.44;61.04;101582.72;5066878;28;20036;-64
2021/07/11 09:50:07;;;;;;;23.17;11.82;;;;;;;21.62;60.85;101571.41;5064444;28;20049;-65
2021/07/11 09:52:34;;;;;;;25.23;12.77;;;;;;;21.72;59.38;101580.09;5063923;28;20104;-65
2021/07/11 09:55:08;;;;;;;24.85;11.93;;;;;;;22.26;59.47;101576.56;5066800;28;20028;-65
2021/07/11 09:57:42;;;;;;;24.35;11.93;;;;;;;22.71;57.51;101585.00;5079375;28;20021;-63
2021/07/11 10:00:34;;;;;;;24.02;12.18;;;;;;;22.43;56.11;101585.94;5072142;28;20031;-63
2021/07/11 10:03:10;;;;;;;24.38;12.73;;;;;;;22.23;57.00;101582.03;5063784;28;20140;-64
2021/07/11 10:05:35;;;;;;;24.10;10.90;;;;;;;22.17;56.83;101581.38;5063475;28;20103;-64
2021/07/11 10:08:01;;;;;;;23.27;10.77;;;;;;;22.03;55.88;101587.19;5066399;28;20028;-71
2021/07/11 10:10:29;;;;;;;21.13;8.57;;;;;;;21.80;56.25;101583.44;5064756;28;20028;-67
2021/07/11 10:12:56;;;;;;;21.70;8.90;;;;;;;21.85;57.19;101578.78;5065581;28;20463;-67
2021/07/11 10:15:25;;;;;;;22.88;9.38;;;;;;;22.23;55.81;101586.56;5065088;28;20025;-75
2021/07/11 10:17:57;;;;;;;22.13;9.10;;;;;;;22.50;53.76;101576.72;5064863;28;20482;-66
2021/07/11 10:20:32;;;;;;;22.00;8.75;;;;;;;23.21;55.06;101578.75;5065175;28;20035;-66
2021/07/11 10:22:58;;;;;;;22.15;9.70;;;;;;;25.31;48.92;101580.97;5065757;28;20021;-66
2021/07/11 10:25:26;;;;;;;23.52;10.73;;;;;;;25.98;45.88;101582.31;5064938;28;20094;-73
2021/07/11 10:28:05;;;;;;;25.73;12.63;;;;;;;24.92;46.97;101579.97;5064877;28;20107;-67
2021/07/11 10:30:32;;;;;;;24.48;13.25;;;;;;;25.03;47.82;101588.50;5063534;28;20017;-67
2021/07/11 10:33:18;;;;;;;26.02;12.80;;;;;;;25.97;45.99;101583.25;5065355;28;20111;-67
2021/07/11 10:35:50;;;;;;;27.05;14.77;;;;;;;24.86;48.93;101585.66;5063450;28;20135;-67
2021/07/11 10:38:33;;;;;;;25.63;13.25;;;;;;;23.63;51.66;101596.94;5065837;28;20055;-67
2021/07/11 10:41:15;;;;;;;25.00;13.85;;;;;;;22.90;53.12;101588.78;5062254;28;20024;-67
2021/07/11 10:43:42;;;;;;;25.85;14.52;;;;;;;22.31;53.26;101580.91;5066365;28;20119;-67
2021/07/11 10:46:07;;;;;;;26.55;15.45;;;;;;;22.08;56.55;101579.88;5063681;28;20025;-67
2021/07/11 10:48:34;;;;;;;25.08;14.00;;;;;;;21.94;55.45;101583.91;5067656;28;20064;-66
2021/07/11 10:51:00;;;;;;;24.30;13.07;;;;;;;22.02;56.54;101585.44;5063726;28;20093;-67
2021/07/11 10:53:36;;;;;;;24.77;14.05;;;;;;;22.18;56.77;101578.63;5065516;28;20045;-67
2021/07/11 10:56:03;;;;;;;24.70;14.35;;;;;;;22.48;56.38;101581.25;5063783;28;20029;-67
2021/07/11 10:58:38;;;;;;;27.08;18.35;;;;;;;22.44;56.40;101577.81;5064348;28;20037;-67
2021/07/11 11:01:15;;;;;;;27.80;19.23;;;;;;;22.36;56.65;101589.78;5063923;28;20050;-68
2021/07/11 11:03:46;;;;;;;28.50;20.27;;;;;;;22.34;57.70;101578.16;5066005;28;20489;-67
2021/07/11 11:06:14;;;;;;;28.07;19.93;;;;;;;23.79;52.98;101579.19;5062608;28;20430;-67
2021/07/11 11:08:43;;;;;;;25.42;17.42;;;;;;;25.54;45.66;101585.31;5065520;28;20298;-71
2021/07/11 11:11:09;;;;;;;24.20;15.75;;;;;;;24.63;46.82;101582.13;5062936;28;20028;-69
2021/07/11 11:13:37;;;;;;;26.02;17.00;;;;;;;23.74;49.33;101580.34;5064756;28;20017;-67